Time;durP1;ratioP1;P1;durP2;ratioP2;P2;SDS_P1;SDS_P2;PMS_P1;PMS_P2;Temp;Humidity;BMP_temperature;BMP_pressure;BME280_temperature;BME280_humidity;BME280_pressure;Samples;Min_cycle;Max_cycle;Signal;HPM_P1;HPM_P2
2022/05/29 12:08:34;;;;;;;10.52;3.22;;;25.20;17.60;;;;;;5062641;28;19931;-68
2022/05/29 12:11:19;;;;;;;4.53;2.43;;;25.30;61.10;;;;;;5059889;28;20201;-68
2022/05/29 12:14:03;;;;;;;9.60;2.93;;;25.50;25.20;;;;;;5016366;28;72060;-67
2022/05/29 12:16:31;;;;;;;8.10;3.10;;;25.00;24.40;;;;;;5022173;28;20485;-73
2022/05/29 12:19:00;;;;;;;6.47;3.17;;;25.10;20.90;;;;;;5017438;28;70364;-75
2022/05/29 12:22:00;;;;;;;6.20;2.90;;;25.50;94.00;;;;;;5023185;28;20461;-75
2022/05/29 12:24:29;;;;;;;9.27;2.83;;;25.50;25.70;;;;;;5022179;28;20540;-75
2022/05/29 12:27:03;;;;;;;6.73;3.10;;;25.00;24.10;;;;;;5049002;23;20477;-74
2022/05/29 12:29:34;;;;;;;4.77;3.20;;;26.20;28.70;;;;;;5027530;28;20433;-70
2022/05/29 12:32:09;;;;;;;6.13;2.83;;;25.60;39.40;;;;;;5028638;28;20752;-71
2022/05/29 12:34:43;;;;;;;3.83;2.60;;;24.80;32.40;;;;;;5027174;28;20402;-71
2022/05/29 12:37:20;;;;;;;5.30;3.60;;;24.40;29.10;;;;;;5030581;28;20508;-70
2022/05/29 12:40:15;;;;;;;7.73;3.50;;;24.30;38.80;;;;;;5027094;28;20403;-70
2022/05/29 12:43:08;;;;;;;4.80;3.10;;;24.20;25.70;;;;;;5031940;28;20433;-73
2022/05/29 12:45:37;;;;;;;9.50;3.20;;;24.10;24.30;;;;;;5027906;28;20420;-75
2022/05/29 12:48:17;;;;;;;10.47;3.43;;;24.00;23.80;;;;;;5035816;28;20487;-70
2022/05/29 12:51:19;;;;;;;5.57;3.37;;;24.10;23.10;;;;;;5030853;28;20431;-70
2022/05/29 12:54:31;;;;;;;5.80;3.10;;;24.10;22.50;;;;;;5033170;28;20410;-72
2022/05/29 12:57:20;;;;;;;6.70;2.57;;;24.00;22.00;;;;;;5019223;28;20532;-71
2022/05/29 13:00:00;;;;;;;7.13;2.67;;;24.10;21.50;;;;;;5040814;28;20497;-73
2022/05/29 13:02:38;;;;;;;5.77;3.77;;;24.10;21.50;;;;;;5034040;28;20422;-72
2022/05/29 13:05:20;;;;;;;3.30;2.50;;;24.00;20.40;;;;;;5025985;28;20523;-71
2022/05/29 13:08:14;;;;;;;6.00;3.20;;;24.00;20.50;;;;;;5039515;28;20528;-69
2022/05/29 13:10:43;;;;;;;5.60;3.63;;;23.90;20.40;;;;;;5038888;28;20787;-71
2022/05/29 13:13:20;;;;;;;5.77;3.87;;;23.80;20.30;;;;;;5029153;28;20458;-70
2022/05/29 13:15:47;;;;;;;6.93;3.30;;;23.70;20.50;;;;;;5039763;28;20452;-69
2022/05/29 13:21:22;;;;;;;6.90;2.97;;;23.60;20.20;;;;;;5012118;28;20876;-72
2022/05/29 13:23:51;;;;;;;4.33;2.73;;;23.60;20.60;;;;;;5003437;28;21031;-72
2022/05/29 13:26:30;;;;;;;6.77;3.10;;;23.60;21.20;;;;;;5012752;28;20936;-68
2022/05/29 13:29:08;;;;;;;7.13;3.50;;;23.50;20.70;;;;;;5005483;28;20434;-72
2022/05/29 13:32:12;;;;;;;4.73;3.17;;;23.50;20.60;;;;;;5013101;28;20410;-70
2022/05/29 13:34:38;;;;;;;88.77;8.77;;;23.40;21.00;;;;;;5010354;28;20480;-67
2022/05/29 13:37:06;;;;;;;5.23;3.70;;;;;;;;;;5010724;28;20443;-66
2022/05/29 13:39:33;;;;;;;10.20;4.00;;;;;;;;;;5024884;28;20461;-68
2022/05/29 13:43:14;;;;;;;15.50;3.83;;;;;;;;;;5005108;28;20638;-70
2022/05/29 13:45:43;;;;;;;8.45;3.00;;;28.10;99.90;;;;;;4977470;28;65509;-73
2022/05/29 13:48:30;;;;;;;7.80;2.90;;;28.70;99.90;;;;;;5028062;27;20580;-72
2022/05/29 13:54:01;;;;;;;8.57;3.30;;;26.60;42.40;;;;;;5005834;27;20681;-63
2022/05/29 14:04:43;;;;;;;3.40;1.70;;;20.80;12.60;;;;;;4951393;28;77783;-72
2022/05/29 14:07:08;;;;;;;3.60;1.90;;;18.60;11.80;;;;;;4925094;28;20494;-73
2022/05/29 14:09:39;;;;;;;2.90;2.00;;;17.70;16.00;;;;;;4925970;28;20538;-71
2022/05/29 14:12:20;;;;;;;3.27;1.93;;;16.90;20.80;;;;;;4936723;28;20261;-69
2022/05/29 14:14:45;;;;;;;2.80;1.90;;;16.80;28.60;;;;;;4936350;28;20481;-73
2022/05/29 14:17:19;;;;;;;11.20;1.90;;;17.10;22.80;;;;;;4927449;28;20471;-71
2022/05/29 14:20:20;;;;;;;3.13;1.93;;;17.40;20.10;;;;;;4930925;28;20305;-71
2022/05/29 14:23:06;;;;;;;3.80;1.60;;;17.40;17.60;;;;;;4924945;29;20515;-69
2022/05/29 14:26:06;;;;;;;2.20;2.00;;;17.00;18.40;;;;;;4943652;28;20466;-73
2022/05/29 14:28:53;;;;;;;3.97;1.70;;;16.80;19.00;;;;;;4941586;28;20505;-69
2022/05/29 14:31:46;;;;;;;2.10;1.60;;;16.10;23.50;;;;;;4940398;28;20825;-70
2022/05/29 14:34:33;;;;;;;4.53;2.23;;;16.10;23.80;;;;;;4931744;28;20656;-70
2022/05/29 14:37:26;;;;;;;6.53;1.90;;;16.50;28.20;;;;;;4943644;28;20456;-70
2022/05/29 14:40:21;;;;;;;1.93;1.50;;;17.00;24.40;;;;;;4943516;29;20549;-70
2022/05/29 14:42:50;;;;;;;2.37;1.50;;;17.70;16.60;;;;;;4939740;28;20545;-70
2022/05/29 14:45:26;;;;;;;14.30;3.73;;;17.00;19.40;;;;;;4936955;28;20495;-69
2022/05/29 14:48:19;;;;;;;1.97;1.57;;;16.90;21.30;;;;;;4938149;29;20456;-70
2022/05/29 15:02:30;;;;;;;1.40;1.30;;;16.40;13.30;;;;;;5063440;28;21142;-68
2022/05/29 15:05:10;;;;;;;2.60;1.80;;;16.10;21.00;;;;;;5004944;28;20570;-71
2022/05/29 15:10:44;;;;;;;3.20;1.63;;;16.00;24.30;;;;;;5006275;28;20784;-71
2022/05/29 15:13:13;;;;;;;2.07;1.40;;;15.90;24.00;;;;;;5006138;28;20857;-72
2022/05/29 15:15:48;;;;;;;2.70;1.50;;;15.80;27.80;;;;;;5002765;28;20455;-72
2022/05/29 15:18:19;;;;;;;4.63;2.50;;;15.60;29.10;;;;;;5004667;28;20430;-69
2022/05/29 15:26:21;;;;;;;1.90;1.30;;;15.80;27.80;;;;;;5009020;28;20454;-70
2022/05/29 15:28:49;;;;;;;3.60;1.57;;;15.60;25.50;;;;;;5010611;28;20439;-69
2022/05/29 15:31:22;;;;;;;1.70;1.50;;;15.90;23.30;;;;;;5013784;28;20415;-71
2022/05/29 15:34:08;;;;;;;4.63;2.33;;;16.00;23.90;;;;;;5012720;28;20535;-70
2022/05/29 15:36:48;;;;;;;6.10;1.90;;;16.10;25.30;;;;;;5014391;28;20524;-69
2022/05/29 15:39:30;;;;;;;2.80;1.57;;;16.30;28.20;;;;;;5012488;28;20408;-71
2022/05/29 15:42:04;;;;;;;23.53;2.60;;;16.10;21.00;;;;;;5012873;28;20797;-70
2022/05/29 15:45:07;;;;;;;5.73;2.00;;;16.20;21.20;;;;;;5012073;28;20458;-70
2022/05/29 15:48:05;;;;;;;3.40;1.87;;;16.50;20.30;;;;;;5006972;28;20465;-70
2022/05/29 15:50:39;;;;;;;4.13;1.53;;;17.10;17.70;;;;;;5008589;28;20423;-71
2022/05/29 15:53:41;;;;;;;4.33;1.70;;;16.80;14.80;;;;;;5009478;28;20437;-72
2022/05/29 15:56:16;;;;;;;2.10;1.30;;;16.80;14.30;;;;;;5004303;28;20459;-72
2022/05/29 15:58:44;;;;;;;2.93;1.67;;;16.50;15.20;;;;;;5004112;28;20961;-70
2022/05/29 16:01:11;;;;;;;4.57;1.67;;;16.30;14.30;;;;;;5005670;28;20455;-72
2022/05/29 16:03:39;;;;;;;2.10;1.47;;;16.30;16.70;;;;;;5003754;28;20931;-72
2022/05/29 16:06:17;;;;;;;5.00;1.83;;;16.40;16.40;;;;;;4998396;28;20437;-71
2022/05/29 16:08:50;;;;;;;1.73;1.43;;;16.80;17.40;;;;;;5003414;28;20419;-70
2022/05/29 16:11:32;;;;;;;2.57;1.50;;;16.70;16.80;;;;;;5003792;28;20499;-71
2022/05/29 16:13:59;;;;;;;3.10;1.57;;;16.80;17.10;;;;;;4990767;28;20601;-71
2022/05/29 16:16:30;;;;;;;2.13;1.93;;;16.80;15.60;;;;;;4991343;28;20493;-70
2022/05/29 16:19:16;;;;;;;3.50;1.50;;;16.60;14.90;;;;;;4984234;28;20473;-71
2022/05/29 16:21:48;;;;;;;3.00;1.57;;;16.10;13.70;;;;;;4990744;28;20463;-73
2022/05/29 16:24:51;;;;;;;2.03;1.47;;;15.50;12.20;;;;;;4989748;28;20408;-71
2022/05/29 16:27:36;;;;;;;3.43;1.90;;;15.30;14.30;;;;;;4986374;28;20570;-71
2022/05/29 16:30:19;;;;;;;2.10;1.40;;;15.30;15.90;;;;;;4982203;28;20483;-73
2022/05/29 16:32:54;;;;;;;3.33;1.83;;;15.20;15.40;;;;;;4990103;28;20467;-69
2022/05/29 16:35:27;;;;;;;5.20;1.60;;;15.20;14.70;;;;;;4990909;28;20420;-69
2022/05/29 16:49:44;;;;;;;3.30;1.33;;;14.90;19.90;;;;;;4989106;28;20423;-68
2022/05/29 16:52:21;;;;;;;6.03;1.37;;;15.10;20.50;;;;;;4990739;28;20502;-69
2022/05/29 16:54:47;;;;;;;13.80;2.53;;;15.40;18.80;;;;;;4990478;28;20428;-69
2022/05/29 16:57:29;;;;;;;1.93;1.27;;;15.60;17.20;;;;;;4989297;28;20535;-70
2022/05/29 17:00:12;;;;;;;15.73;2.80;;;15.80;14.40;;;;;;4990265;28;20931;-71
2022/05/29 17:02:43;;;;;;;6.13;1.73;;;16.10;14.30;;;;;;4990496;28;20516;-71
2022/05/29 17:05:17;;;;;;;7.13;2.20;;;16.10;13.90;;;;;;4990133;28;20486;-71
2022/05/29 17:07:57;;;;;;;1.57;1.33;;;16.20;15.50;;;;;;4990081;28;20753;-71
2022/05/29 17:10:26;;;;;;;1.70;1.27;;;16.30;14.40;;;;;;4990214;28;20411;-71
2022/05/29 17:12:57;;;;;;;1.90;1.40;;;16.10;13.70;;;;;;4989643;28;20426;-71
2022/05/29 17:15:31;;;;;;;2.70;1.40;;;16.00;13.30;;;;;;4990499;28;20434;-70
2022/05/29 17:17:57;;;;;;;3.33;1.43;;;15.50;15.60;;;;;;4989915;28;20458;-71
2022/05/29 17:20:25;;;;;;;2.23;1.43;;;15.50;15.80;;;;;;4989813;28;20918;-71
2022/05/29 17:23:10;;;;;;;9.07;2.17;;;15.70;16.80;;;;;;4990230;28;20912;-69
2022/05/29 17:25:52;;;;;;;5.90;2.30;;;15.80;17.40;;;;;;4989206;28;20491;-75
2022/05/29 17:28:42;;;;;;;18.03;3.37;;;15.90;17.70;;;;;;4984931;28;20427;-70
2022/05/29 17:31:35;;;;;;;16.83;3.50;;;15.80;17.70;;;;;;4983981;28;20507;-70
2022/05/29 17:34:05;;;;;;;5.13;1.57;;;15.80;17.50;;;;;;4988158;28;20750;-70
2022/05/29 17:36:43;;;;;;;3.53;1.90;;;15.80;18.10;;;;;;4989528;28;20435;-70
2022/05/29 17:39:58;;;;;;;8.00;2.20;;;15.70;17.80;;;;;;4988738;28;20419;-70
2022/05/29 17:42:24;;;;;;;3.63;2.43;;;15.80;18.30;;;;;;4989271;28;20424;-70
2022/05/29 17:44:50;;;;;;;2.40;1.60;;;15.70;17.50;;;;;;4989495;28;20424;-70
2022/05/29 17:47:23;;;;;;;2.70;1.60;;;15.50;16.40;;;;;;4988964;28;20440;-71
2022/05/29 17:50:14;;;;;;;2.10;1.83;;;15.40;17.70;;;;;;4988305;28;20177;-71
2022/05/29 17:53:03;;;;;;;3.83;1.50;;;15.10;18.00;;;;;;4989497;28;20482;-71
2022/05/29 17:55:28;;;;;;;3.10;1.60;;;14.80;18.10;;;;;;4990165;28;20471;-71
2022/05/29 17:57:59;;;;;;;2.43;1.60;;;14.60;20.40;;;;;;4988144;28;21141;-71
2022/05/29 18:00:25;;;;;;;2.07;1.70;;;14.80;20.10;;;;;;4987536;28;20761;-72
2022/05/29 18:02:57;;;;;;;3.10;1.70;;;14.80;20.00;;;;;;4985453;28;20416;-70
2022/05/29 18:05:26;;;;;;;3.77;2.00;;;14.70;19.70;;;;;;4987178;28;20443;-71
2022/05/29 18:07:53;;;;;;;2.27;1.60;;;14.50;31.70;;;;;;4986194;28;20494;-72
2022/05/29 18:10:19;;;;;;;3.70;1.73;;;14.50;22.20;;;;;;4986107;28;20412;-72
2022/05/29 18:12:45;;;;;;;1.77;1.30;;;14.50;21.10;;;;;;4986078;28;20416;-72
2022/05/29 18:15:11;;;;;;;3.33;1.80;;;14.60;21.50;;;;;;4985839;28;20431;-73
2022/05/29 18:17:37;;;;;;;7.60;1.70;;;14.50;20.10;;;;;;4980055;28;20395;-72
2022/05/29 18:20:05;;;;;;;3.30;1.90;;;14.60;20.60;;;;;;4985979;28;20519;-72
2022/05/29 18:22:31;;;;;;;5.53;1.77;;;14.50;20.90;;;;;;4986329;28;20184;-72
2022/05/29 18:24:57;;;;;;;2.40;1.80;;;14.50;19.90;;;;;;4986317;28;20496;-72
2022/05/29 18:27:23;;;;;;;2.60;1.73;;;14.50;21.40;;;;;;5000305;23;20633;-72
2022/05/29 18:29:49;;;;;;;3.67;2.23;;;14.50;18.60;;;;;;4984823;28;20964;-70
2022/05/29 18:32:14;;;;;;;6.67;2.00;;;14.60;19.30;;;;;;4986946;28;20588;-70
2022/05/29 18:34:40;;;;;;;3.77;2.30;;;14.30;20.10;;;;;;4984143;28;20284;-70
2022/05/29 18:37:06;;;;;;;7.63;1.90;;;14.30;22.70;;;;;;4973122;28;20205;-71
2022/05/29 18:39:32;;;;;;;7.33;3.07;;;14.30;29.70;;;;;;4960925;28;20255;-70
2022/05/29 18:41:58;;;;;;;21.93;3.10;;;14.30;34.40;;;;;;4968674;28;20807;-71
2022/05/29 18:44:25;;;;;;;4.10;2.60;;;14.40;42.30;;;;;;4967770;28;20287;-71
2022/05/29 18:46:56;;;;;;;3.60;2.07;;;14.30;56.10;;;;;;4969658;28;20194;-72
2022/05/29 18:49:21;;;;;;;5.53;2.80;;;14.20;52.80;;;;;;4967034;28;20425;-72
2022/05/29 18:51:47;;;;;;;14.13;3.47;;;14.10;54.50;;;;;;4970033;28;20421;-70
2022/05/29 18:54:14;;;;;;;19.43;3.70;;;14.10;58.60;;;;;;4969437;28;20182;-71
2022/05/29 18:56:41;;;;;;;5.83;3.20;;;13.90;67.10;;;;;;4952077;28;20264;-70
2022/05/29 18:59:07;;;;;;;4.70;3.00;;;13.70;79.30;;;;;;4967618;28;20500;-71
2022/05/29 19:01:33;;;;;;;5.57;2.30;;;13.60;94.00;;;;;;4968839;28;21008;-70
2022/05/29 19:03:58;;;;;;;5.80;2.43;;;13.50;94.30;;;;;;4969304;28;20178;-73
2022/05/29 19:06:26;;;;;;;8.90;2.90;;;13.50;95.80;;;;;;4970096;28;20185;-74
2022/05/29 19:08:52;;;;;;;4.97;2.60;;;13.40;95.80;;;;;;4969692;28;20724;-73
2022/05/29 19:11:18;;;;;;;4.13;2.40;;;13.30;99.90;;;;;;4969266;28;20421;-75
2022/05/29 19:13:45;;;;;;;4.00;2.10;;;13.00;99.90;;;;;;4968968;28;20185;-75
2022/05/29 19:16:14;;;;;;;4.97;3.03;;;12.90;99.90;;;;;;4968426;28;20453;-74
2022/05/29 19:18:39;;;;;;;6.70;3.03;;;12.90;99.90;;;;;;4968057;28;20424;-75
2022/05/29 19:21:05;;;;;;;6.80;2.77;;;12.70;99.90;;;;;;4968633;28;20456;-72
2022/05/29 19:23:32;;;;;;;6.00;3.33;;;12.40;99.90;;;;;;4969134;28;20233;-78
2022/05/29 19:26:07;;;;;;;5.90;2.87;;;12.30;99.90;;;;;;4968432;28;20205;-75
2022/05/29 19:28:33;;;;;;;3.80;3.27;;;12.00;99.90;;;;;;4967702;28;20454;-73
2022/05/29 19:30:59;;;;;;;5.87;2.30;;;11.90;99.90;;;;;;4968487;28;20417;-75
2022/05/29 19:33:27;;;;;;;7.47;3.37;;;11.90;99.90;;;;;;4967717;28;20417;-73
2022/05/29 19:35:53;;;;;;;2.70;2.50;;;12.00;99.90;;;;;;4972658;28;20429;-72
2022/05/29 19:38:21;;;;;;;5.27;2.97;;;11.90;99.90;;;;;;4976193;28;20786;-72
2022/05/29 19:40:47;;;;;;;3.63;2.80;;;11.70;99.90;;;;;;4970279;28;20197;-74
2022/05/29 19:43:13;;;;;;;5.23;2.73;;;11.80;99.90;;;;;;4968087;28;20825;-72
2022/05/29 19:45:41;;;;;;;4.13;2.83;;;11.70;99.90;;;;;;4969568;28;20704;-72
2022/05/29 19:48:07;;;;;;;3.30;2.30;;;11.70;99.90;;;;;;4969597;28;20433;-72
2022/05/29 19:50:33;;;;;;;5.27;3.10;;;11.60;99.90;;;;;;4969134;28;20544;-70
2022/05/29 19:52:59;;;;;;;4.40;2.73;;;11.40;99.90;;;;;;4972340;28;20181;-72
2022/05/29 19:55:27;;;;;;;4.43;3.00;;;11.40;99.90;;;;;;4972783;28;20178;-71
2022/05/29 19:57:53;;;;;;;6.63;3.73;;;11.50;99.90;;;;;;4971933;28;20441;-71
2022/05/29 20:00:20;;;;;;;4.30;2.83;;;11.60;99.90;;;;;;4971397;28;20507;-71
2022/05/29 20:02:46;;;;;;;4.00;3.60;;;11.60;99.90;;;;;;4971598;28;20208;-72
2022/05/29 20:05:13;;;;;;;4.70;3.33;;;11.70;99.90;;;;;;4971195;28;20457;-72
2022/05/29 20:07:39;;;;;;;3.13;2.83;;;11.70;99.90;;;;;;4971696;28;20247;-71
2022/05/29 20:10:07;;;;;;;3.50;2.90;;;11.60;99.90;;;;;;4972447;28;20444;-72
2022/05/29 20:12:33;;;;;;;4.53;2.90;;;11.40;99.90;;;;;;4972213;28;20423;-71
2022/05/29 20:14:58;;;;;;;3.80;3.37;;;11.50;99.90;;;;;;4971679;28;20433;-72
2022/05/29 20:17:24;;;;;;;3.30;3.00;;;11.50;99.90;;;;;;4972196;28;20926;-73
2022/05/29 20:19:50;;;;;;;3.60;3.10;;;11.40;99.90;;;;;;4970127;28;20236;-71
2022/05/29 20:22:17;;;;;;;7.97;3.90;;;11.40;99.90;;;;;;4971633;28;20182;-75
2022/05/29 20:24:43;;;;;;;5.40;3.60;;;11.40;99.90;;;;;;4954495;28;20417;-73
2022/05/29 20:27:11;;;;;;;4.93;3.27;;;11.50;99.90;;;;;;4970487;28;20464;-73
2022/05/29 20:29:38;;;;;;;3.17;2.80;;;11.50;99.90;;;;;;4969830;28;20185;-70
2022/05/29 20:32:05;;;;;;;5.07;3.13;;;11.50;99.90;;;;;;4972852;28;20512;-72
2022/05/29 20:34:31;;;;;;;5.60;3.17;;;11.30;99.90;;;;;;4972497;28;20728;-72
2022/05/29 20:36:56;;;;;;;5.27;3.70;;;10.70;1.00;;;;;;4971684;28;20503;-74
2022/05/29 20:39:23;;;;;;;3.33;2.90;;;10.70;1.00;;;;;;4972190;28;20186;-74
2022/05/29 20:41:51;;;;;;;4.43;3.10;;;10.40;1.00;;;;;;4967931;28;20201;-73
2022/05/29 20:44:19;;;;;;;5.73;3.57;;;10.20;1.00;;;;;;4972470;28;21307;-73
2022/05/29 20:49:33;;;;;;;9.50;3.73;;;10.20;1.00;;;;;;4968207;28;20540;-73
2022/05/29 20:51:59;;;;;;;7.20;3.60;;;10.10;1.00;;;;;;4972109;28;20428;-73
2022/05/29 20:54:25;;;;;;;5.80;3.30;;;10.10;1.00;;;;;;4971318;28;20421;-73
2022/05/29 20:56:52;;;;;;;5.23;3.77;;;10.20;1.00;;;;;;4972028;28;20289;-73
2022/05/29 20:59:20;;;;;;;3.50;2.90;;;10.20;99.90;;;;;;4971365;28;20476;-72
2022/05/29 21:01:50;;;;;;;3.80;3.10;;;9.90;99.90;;;;;;4970131;28;20457;-71
2022/05/29 21:04:17;;;;;;;4.93;3.30;;;10.10;99.90;;;;;;4967692;28;20473;-73
2022/05/29 21:06:43;;;;;;;3.87;3.00;;;10.00;1.00;;;;;;4963391;28;20525;-72
2022/05/29 21:09:08;;;;;;;6.57;3.73;;;9.90;1.00;;;;;;4967790;28;20425;-73
2022/05/29 21:11:35;;;;;;;6.73;3.20;;;9.90;99.90;;;;;;4969387;28;20182;-72
2022/05/29 21:14:06;;;;;;;4.20;3.47;;;10.00;1.00;;;;;;4950098;28;20205;-72
2022/05/29 21:16:33;;;;;;;4.37;3.97;;;9.80;1.00;;;;;;4969216;28;20444;-70
2022/05/29 21:18:59;;;;;;;4.97;4.20;;;10.00;99.90;;;;;;4966403;28;20981;-72
2022/05/29 21:21:27;;;;;;;8.83;4.30;;;10.30;99.90;;;;;;4967503;28;20516;-72
2022/05/29 21:23:57;;;;;;;5.57;4.17;;;10.40;99.90;;;;;;4968556;28;20429;-73
2022/05/29 21:26:23;;;;;;;3.97;3.57;;;10.50;99.90;;;;;;4969142;28;20448;-73
2022/05/29 21:28:49;;;;;;;5.20;3.80;;;10.50;99.90;;;;;;4967309;28;20424;-73
2022/05/29 21:31:15;;;;;;;4.10;3.20;;;10.40;99.90;;;;;;4969355;28;20197;-73
2022/05/29 21:33:45;;;;;;;4.30;3.10;;;10.40;99.90;;;;;;4967741;28;20178;-73
2022/05/29 21:36:20;;;;;;;3.70;2.90;;;10.10;99.90;;;;;;4952706;28;20662;-73
2022/05/29 21:38:47;;;;;;;4.97;3.60;;;10.30;99.90;;;;;;4968590;28;20861;-73
2022/05/29 21:41:12;;;;;;;3.83;3.43;;;10.20;99.90;;;;;;4968962;28;20860;-72
2022/05/29 21:43:39;;;;;;;3.63;2.70;;;9.90;1.00;;;;;;4968347;28;20455;-73
2022/05/29 21:46:15;;;;;;;2.60;2.40;;;9.90;99.90;;;;;;4969032;28;20208;-71
2022/05/29 21:48:42;;;;;;;3.40;3.03;;;10.00;99.90;;;;;;4967138;28;20404;-71
2022/05/29 21:51:11;;;;;;;3.23;2.60;;;9.90;99.90;;;;;;4968907;28;20467;-73
2022/05/29 21:53:37;;;;;;;3.03;2.70;;;10.20;5.70;;;;;;4968775;28;20456;-71
2022/05/29 21:56:10;;;;;;;3.40;3.10;;;10.20;99.90;;;;;;4969005;28;20433;-71
2022/05/29 21:58:38;;;;;;;3.40;2.87;;;10.20;97.30;;;;;;4967148;28;20169;-71
2022/05/29 22:01:04;;;;;;;4.03;3.20;;;10.20;44.50;;;;;;4968948;28;20464;-71
2022/05/29 22:03:32;;;;;;;3.23;2.93;;;10.30;1.00;;;;;;4967676;28;20413;-71
2022/05/29 22:06:09;;;;;;;4.37;3.40;;;10.30;1.00;;;;;;4968307;28;20439;-72
2022/05/29 22:08:36;;;;;;;8.10;3.00;;;10.30;1.00;;;;;;4967378;28;20401;-70
2022/05/29 22:11:03;;;;;;;4.30;3.00;;;10.40;1.00;;;;;;4968249;28;20479;-72
2022/05/29 22:13:29;;;;;;;5.23;3.07;;;10.40;1.00;;;;;;4967905;28;20421;-69
2022/05/29 22:16:01;;;;;;;4.70;3.60;;;10.50;1.00;;;;;;4984157;28;20472;-72
2022/05/29 22:18:27;;;;;;;6.53;3.17;;;10.30;1.00;;;;;;4986595;28;20427;-73
2022/05/29 22:20:53;;;;;;;5.73;2.67;;;10.30;1.00;;;;;;4972537;28;20468;-73
2022/05/29 22:23:18;;;;;;;4.70;3.07;;;10.40;1.00;;;;;;4993397;28;20173;-74
2022/05/29 22:25:44;;;;;;;2.60;2.40;;;10.30;1.00;;;;;;4990972;28;20924;-76
2022/05/29 22:28:10;;;;;;;3.77;2.93;;;10.30;1.00;;;;;;4988037;28;20176;-73
2022/05/29 22:30:36;;;;;;;6.03;3.57;;;10.30;1.00;;;;;;4989575;28;20265;-72
2022/05/29 22:33:20;;;;;;;5.33;4.00;;;10.30;1.00;;;;;;4989040;28;20502;-73
2022/05/29 22:35:50;;;;;;;7.07;3.93;;;10.30;1.00;;;;;;4989684;28;20169;-72
2022/05/29 22:38:15;;;;;;;5.10;3.87;;;10.40;1.00;;;;;;4987852;28;20427;-73
2022/05/29 22:40:41;;;;;;;5.37;4.20;;;10.20;1.00;;;;;;4989710;28;20451;-74
2022/05/29 22:43:07;;;;;;;6.10;4.20;;;10.20;1.00;;;;;;4981626;28;20882;-72
2022/05/29 22:45:33;;;;;;;3.73;3.43;;;10.20;1.00;;;;;;4973903;28;20513;-73
2022/05/29 22:48:10;;;;;;;6.00;4.93;;;10.20;1.00;;;;;;4973978;28;20170;-75
2022/05/29 22:50:35;;;;;;;10.17;4.50;;;10.20;1.00;;;;;;4974164;28;20502;-73
2022/05/29 22:53:30;;;;;;;5.37;4.17;;;10.30;1.00;;;;;;4974480;28;20417;-73
2022/05/29 22:55:56;;;;;;;8.03;4.90;;;10.20;1.00;;;;;;4981209;28;20204;-74
2022/05/29 22:58:22;;;;;;;6.97;4.50;;;10.10;1.00;;;;;;4980780;28;20412;-73
2022/05/29 23:00:49;;;;;;;8.10;4.30;;;10.10;1.00;;;;;;4982028;28;20205;-73
2022/05/29 23:03:23;;;;;;;6.20;4.27;;;10.10;1.00;;;;;;4981792;28;20456;-71
2022/05/29 23:05:49;;;;;;;6.63;5.17;;;9.80;1.00;;;;;;4985478;28;20432;-72
2022/05/29 23:08:15;;;;;;;5.70;3.60;;;9.90;1.00;;;;;;4978477;28;20409;-72
2022/05/29 23:10:41;;;;;;;6.80;4.13;;;9.90;1.00;;;;;;4968173;28;20183;-71
2022/05/29 23:13:06;;;;;;;4.87;4.37;;;9.90;1.00;;;;;;4986312;28;20184;-71
2022/05/29 23:15:32;;;;;;;10.57;4.67;;;9.80;1.00;;;;;;4997080;28;20219;-73
2022/05/29 23:17:58;;;;;;;6.03;4.00;;;9.80;1.00;;;;;;5002470;28;20220;-72
2022/05/29 23:20:24;;;;;;;9.43;4.20;;;9.80;1.00;;;;;;5002018;28;20256;-74
2022/05/29 23:22:53;;;;;;;4.67;3.97;;;9.80;1.00;;;;;;5006262;28;20580;-71
2022/05/29 23:25:21;;;;;;;7.80;4.77;;;9.80;1.00;;;;;;4985911;28;20515;-71
2022/05/29 23:27:46;;;;;;;5.13;3.80;;;9.80;1.00;;;;;;4982158;28;20456;-71
2022/05/29 23:30:15;;;;;;;5.70;3.90;;;9.80;1.00;;;;;;4989296;28;20435;-72
2022/05/29 23:32:49;;;;;;;7.07;4.50;;;9.90;1.00;;;;;;4974639;28;20256;-72
2022/05/29 23:35:18;;;;;;;4.27;3.87;;;9.80;1.00;;;;;;4974099;28;20430;-72
2022/05/29 23:37:45;;;;;;;5.60;4.50;;;9.60;1.00;;;;;;4974239;28;20429;-72
2022/05/29 23:40:16;;;;;;;5.37;4.37;;;9.50;1.00;;;;;;4973649;28;20496;-72
2022/05/29 23:42:42;;;;;;;6.67;3.80;;;9.60;1.00;;;;;;4973678;28;20520;-71
2022/05/29 23:45:18;;;;;;;6.00;3.97;;;9.60;1.00;;;;;;4974206;28;20436;-73
2022/05/29 23:48:01;;;;;;;4.77;4.30;;;9.50;1.00;;;;;;4973384;28;20504;-73
2022/05/29 23:50:28;;;;;;;5.47;4.37;;;9.50;1.00;;;;;;4973304;28;20417;-72
2022/05/29 23:52:55;;;;;;;5.37;4.23;;;9.40;1.00;;;;;;4973532;28;20441;-73
2022/05/29 23:55:21;;;;;;;7.83;4.50;;;9.40;1.00;;;;;;4973361;28;20511;-73
2022/05/29 23:57:48;;;;;;;4.50;4.10;;;9.40;1.00;;;;;;4972190;28;20803;-73
